Terminal Aerodrome Forecast
Issued by NWS Cleveland, OH

Home | Current Version | Previous Version | Text Only | Print | Product List | Glossary On
Versions: 1 2 3 4 5 6 7 8 9 10 11 12 13
746
FTUS41 KCLE 282331
TAFMFD
TAF
KMFD 282331Z 2900/2924 18010KT P6SM BKN200
     FM291100 21012G20KT P6SM SCT100 BKN200
     FM291500 22015G30KT P6SM SCT040 BKN200
     FM292300 21014KT P6SM BKN040 BKN140=

USA.gov is the U.S. government's official web portal to all federal, state and local government web resources and services.